Ciili, Kazakhstan
Current Conditions -  °F | °C
As of 10:00 PM on Saturday 25 Oct 2014 (Local Time) from UAOO Reporting Station
Clear Clear  
Wind Chill: 32°   Ceiling: Unl
Heat Index: 37°   Visibility: 6mi
Dew Point: 27°   Wind: 7mph
Humidity: 65%   Direction: 60°ENE
Pressure: 30.03"   Gusts: NA
Location:  44.17°N, 66.75°E
Report Text: UAOO 251700Z 06003MPS 030V090 CAVOK 03/M03 Q1017 NOSIG RMKQFE751/1001
Loading
Personal Weather Stations






























Interactive Weather Map
Tropical Storm Tracking
New forecast layout! Learn more

10-Day Weather Forecast

Advertisements
Track Severe Weather on mobile